createdAt,value
2022-08-08T00:02:03.749Z,4.30
2022-08-08T00:04:56.442Z,4.40
2022-08-08T00:07:33.715Z,4.67
2022-08-08T00:10:12.302Z,4.90
2022-08-08T00:12:56.598Z,4.53
2022-08-08T00:15:57.707Z,4.83
2022-08-08T00:18:28.582Z,4.83
2022-08-08T00:21:01.231Z,5.00
2022-08-08T00:23:47.615Z,4.90
2022-08-08T00:26:26.148Z,4.43
2022-08-08T00:29:03.178Z,5.40
2022-08-08T00:32:20.711Z,5.07
2022-08-08T00:34:57.844Z,5.30
2022-08-08T00:37:47.147Z,5.37
2022-08-08T00:41:11.393Z,4.70
2022-08-08T00:43:59.198Z,5.70
2022-08-08T00:46:58.919Z,4.90
2022-08-08T00:49:59.016Z,5.07
2022-08-08T00:52:53.993Z,5.50
2022-08-08T00:55:59.213Z,4.60
2022-08-08T00:59:00.690Z,5.13
2022-08-08T01:02:06.647Z,4.20
2022-08-08T01:05:58.671Z,5.07
2022-08-08T01:09:36.470Z,4.97
2022-08-08T01:12:19.977Z,4.93
2022-08-08T01:15:54.141Z,4.37
2022-08-08T01:18:57.754Z,4.53
2022-08-08T01:22:15.615Z,4.30
2022-08-08T01:24:59.775Z,5.10
2022-08-08T01:27:44.508Z,5.63
2022-08-08T01:30:53.715Z,5.50
2022-08-08T01:34:01.539Z,5.63
2022-08-08T01:37:21.833Z,5.30
2022-08-08T01:40:17.708Z,6.67
2022-08-08T01:43:25.257Z,6.10
2022-08-08T01:46:38.547Z,6.20
2022-08-08T01:49:23.437Z,6.17
2022-08-08T01:53:28.895Z,5.40
2022-08-08T01:56:26.608Z,6.33
2022-08-08T01:58:39.827Z,5.40
2022-08-08T02:02:04.917Z,5.97
2022-08-08T02:04:45.135Z,4.90
2022-08-08T02:07:41.503Z,5.80
2022-08-08T02:10:29.915Z,5.70
2022-08-08T02:13:54.379Z,7.10
2022-08-08T02:16:12.219Z,6.73
2022-08-08T02:18:59.510Z,6.67
2022-08-08T02:21:53.771Z,6.33
2022-08-08T02:24:26.167Z,7.70
2022-08-08T02:27:01.389Z,6.47
2022-08-08T02:29:52.723Z,6.37
2022-08-08T02:32:34.074Z,6.37
2022-08-08T02:35:18.304Z,6.60
2022-08-08T02:38:30.051Z,6.70
2022-08-08T02:42:04.206Z,6.73
2022-08-08T02:44:43.121Z,6.70
2022-08-08T02:48:07.820Z,6.27
2022-08-08T02:51:11.953Z,6.90
2022-08-08T02:54:15.603Z,6.73
2022-08-08T02:57:12.337Z,6.50
2022-08-08T03:00:31.792Z,6.43
2022-08-08T03:03:15.988Z,7.40
2022-08-08T03:06:30.628Z,5.83
2022-08-08T03:09:54.745Z,6.40
2022-08-08T03:13:01.712Z,6.80
2022-08-08T03:16:07.265Z,7.43
2022-08-08T03:18:54.672Z,6.93
2022-08-08T03:21:26.760Z,6.40
2022-08-08T03:24:07.176Z,6.90
2022-08-08T03:26:44.413Z,6.20
2022-08-08T03:29:26.963Z,6.80
2022-08-08T03:32:29.191Z,6.83
2022-08-08T03:34:57.846Z,6.60
2022-08-08T03:37:59.675Z,7.10
2022-08-08T03:40:30.431Z,6.27
2022-08-08T03:43:16.518Z,6.73
2022-08-08T03:46:04.883Z,6.70
2022-08-08T03:49:54.905Z,6.80
2022-08-08T03:51:50.697Z,7.40
2022-08-08T03:54:41.138Z,6.60
2022-08-08T03:58:30.934Z,6.30
2022-08-08T04:00:07.662Z,7.30
2022-08-08T04:02:47.536Z,6.60
2022-08-08T04:05:27.458Z,6.47
2022-08-08T04:07:58.386Z,7.37
2022-08-08T04:10:31.689Z,7.43
2022-08-08T04:13:08.227Z,7.70
2022-08-08T04:15:55.149Z,7.73
2022-08-08T04:18:39.367Z,7.67
2022-08-08T04:21:11.601Z,7.60
2022-08-08T04:24:05.704Z,7.73
2022-08-08T04:26:35.591Z,7.13
2022-08-08T04:29:15.278Z,7.77
2022-08-08T04:31:58.771Z,7.30
2022-08-08T04:34:32.194Z,7.50
2022-08-08T04:37:11.437Z,7.93
2022-08-08T04:40:04.670Z,7.60
2022-08-08T04:42:27.246Z,7.50
2022-08-08T04:44:55.640Z,7.80
2022-08-08T04:47:24.315Z,7.93
2022-08-08T04:50:01.289Z,6.90
2022-08-08T04:52:35.354Z,6.53
2022-08-08T04:55:06.698Z,8.03
2022-08-08T04:57:34.740Z,6.90
2022-08-08T05:00:04.887Z,8.43
2022-08-08T05:02:31.945Z,6.43
2022-08-08T05:05:00.179Z,7.10
2022-08-08T05:07:35.315Z,6.80
2022-08-08T05:10:11.228Z,6.47
2022-08-08T05:12:59.799Z,6.77
2022-08-08T05:16:48.116Z,6.33
2022-08-08T05:18:15.261Z,6.23
2022-08-08T05:20:50.126Z,6.30
2022-08-08T05:23:19.766Z,5.90
2022-08-08T05:25:49.553Z,4.97
2022-08-08T05:28:48.410Z,5.33
2022-08-08T05:31:19.510Z,4.57
2022-08-08T05:33:52.551Z,3.13
2022-08-08T05:36:28.045Z,3.83
2022-08-08T05:38:58.529Z,4.73
2022-08-08T05:41:26.232Z,3.87
2022-08-08T05:44:31.258Z,3.63
2022-08-08T05:47:02.962Z,3.70
2022-08-08T05:49:31.139Z,3.00
2022-08-08T05:51:58.062Z,3.25
2022-08-08T05:54:43.274Z,3.55
2022-08-08T05:57:16.438Z,3.00
2022-08-08T06:00:23.669Z,3.17
2022-08-08T06:03:17.370Z,3.00
2022-08-08T06:06:01.188Z,3.00
2022-08-08T06:08:53.218Z,2.97
2022-08-08T06:11:22.375Z,2.75
2022-08-08T06:13:54.968Z,2.65
2022-08-08T06:16:27.390Z,3.05
2022-08-08T06:19:35.233Z,2.80
2022-08-08T06:22:32.040Z,2.55
2022-08-08T06:24:53.443Z,2.58
2022-08-08T06:27:38.707Z,2.55
2022-08-08T06:30:11.956Z,2.65
2022-08-08T06:32:53.350Z,2.00
2022-08-08T06:36:04.160Z,2.70
2022-08-08T06:38:14.489Z,2.85
2022-08-08T06:40:48.742Z,2.80
2022-08-08T06:43:33.691Z,2.88
2022-08-08T06:46:09.059Z,2.75
2022-08-08T06:48:36.622Z,2.67
2022-08-08T06:51:07.824Z,2.50
2022-08-08T06:53:39.476Z,3.03
2022-08-08T06:56:18.169Z,2.20
2022-08-08T06:58:50.257Z,2.20
2022-08-08T07:02:18.271Z,2.53
2022-08-08T07:04:45.390Z,2.53
2022-08-08T07:07:32.870Z,2.42
2022-08-08T07:10:08.364Z,2.70
2022-08-08T07:12:48.362Z,2.20
2022-08-08T07:16:06.229Z,2.05
2022-08-08T07:18:49.838Z,2.30
2022-08-08T07:21:22.354Z,2.30
2022-08-08T07:24:05.658Z,2.42
2022-08-08T07:26:46.878Z,2.10
2022-08-08T07:30:00.273Z,2.25
2022-08-08T07:32:15.670Z,1.90
2022-08-08T07:35:00.058Z,2.40
2022-08-08T07:37:55.995Z,2.10
2022-08-08T07:40:29.521Z,1.80
2022-08-08T07:43:00.942Z,1.58
2022-08-08T07:45:34.404Z,2.08
2022-08-08T07:48:14.971Z,1.60
2022-08-08T07:50:44.207Z,2.60
2022-08-08T07:54:01.870Z,1.77
2022-08-08T07:56:37.324Z,1.42
2022-08-08T07:59:14.898Z,1.60
2022-08-08T08:02:36.219Z,2.33
2022-08-08T08:04:49.095Z,2.05
2022-08-08T08:07:26.112Z,2.20
2022-08-08T08:10:03.727Z,1.92
2022-08-08T08:12:41.373Z,1.98
2022-08-08T08:15:12.145Z,1.88
2022-08-08T08:17:49.120Z,2.00
2022-08-08T08:20:29.852Z,1.80
2022-08-08T08:23:01.035Z,1.55
2022-08-08T08:25:42.752Z,2.08
2022-08-08T08:28:21.531Z,1.65
2022-08-08T08:30:53.913Z,1.90
2022-08-08T08:33:23.417Z,1.80
2022-08-08T08:36:20.454Z,1.73
2022-08-08T08:38:49.595Z,2.05
2022-08-08T08:41:22.204Z,1.80
2022-08-08T08:43:52.129Z,1.98
2022-08-08T08:46:20.067Z,1.67
2022-08-08T08:48:55.721Z,2.17
2022-08-08T08:51:26.882Z,2.05
2022-08-08T08:54:02.037Z,2.00
2022-08-08T08:56:36.525Z,2.25
2022-08-08T08:59:15.379Z,2.38
2022-08-08T09:01:51.872Z,2.60
2022-08-08T09:04:38.790Z,2.03
2022-08-08T09:07:22.553Z,2.15
2022-08-08T09:09:57.110Z,2.33
2022-08-08T09:12:28.613Z,1.90
2022-08-08T09:14:58.296Z,2.33
2022-08-08T09:17:40.718Z,2.22
2022-08-08T09:22:01.638Z,2.30
2022-08-08T09:23:01.267Z,2.50
2022-08-08T09:25:36.200Z,2.00
2022-08-08T09:28:30.802Z,2.65
2022-08-08T09:31:12.640Z,2.33
2022-08-08T09:34:14.490Z,2.53
2022-08-08T09:36:36.029Z,2.50
2022-08-08T09:39:15.508Z,2.47
2022-08-08T09:42:21.127Z,2.80
2022-08-08T09:44:49.005Z,3.00
2022-08-08T09:47:26.966Z,2.97
2022-08-08T09:50:11.521Z,2.67
2022-08-08T09:52:55.776Z,2.53
2022-08-08T09:56:03.547Z,2.50
2022-08-08T09:58:25.824Z,2.17
2022-08-08T10:00:57.426Z,3.30
2022-08-08T10:03:27.924Z,2.53
2022-08-08T10:05:58.530Z,3.00
2022-08-08T10:08:26.142Z,3.35
2022-08-08T10:10:59.439Z,2.65
2022-08-08T10:13:35.908Z,2.60
2022-08-08T10:16:05.786Z,2.42
2022-08-08T10:18:34.829Z,2.92
2022-08-08T10:21:26.026Z,2.60
2022-08-08T10:24:02.825Z,3.17
2022-08-08T10:26:59.430Z,2.70
2022-08-08T10:29:58.600Z,2.67
2022-08-08T10:32:48.776Z,2.53
2022-08-08T10:36:09.405Z,2.65
2022-08-08T10:38:16.208Z,3.20
2022-08-08T10:40:45.663Z,2.67
2022-08-08T10:43:12.789Z,2.80
2022-08-08T10:45:55.020Z,2.50
2022-08-08T10:48:57.738Z,2.60
2022-08-08T10:51:31.679Z,2.38
2022-08-08T10:54:08.129Z,2.55
2022-08-08T10:56:43.076Z,2.13
2022-08-08T10:59:14.353Z,2.22
2022-08-08T11:01:49.439Z,2.38
2022-08-08T11:04:38.535Z,2.33
2022-08-08T11:07:07.059Z,2.08
2022-08-08T11:09:34.391Z,2.70
2022-08-08T11:12:12.323Z,2.38
2022-08-08T11:14:54.423Z,1.98
2022-08-08T11:17:58.594Z,2.30
2022-08-08T11:20:14.263Z,2.45
2022-08-08T11:22:49.899Z,2.42
2022-08-08T11:25:22.249Z,2.22
2022-08-08T11:28:13.084Z,2.50
2022-08-08T11:30:40.969Z,2.38
2022-08-08T11:33:20.003Z,2.47
2022-08-08T11:35:47.462Z,2.13
2022-08-08T11:38:36.754Z,2.97
2022-08-08T11:41:03.129Z,2.72
2022-08-08T11:43:38.884Z,2.15
2022-08-08T11:46:14.228Z,2.65
2022-08-08T11:48:47.075Z,2.17
2022-08-08T11:51:30.518Z,2.50
2022-08-08T11:54:04.928Z,2.50
2022-08-08T11:56:56.614Z,2.43
2022-08-08T11:59:58.401Z,2.30
2022-08-08T12:02:32.343Z,2.20
2022-08-08T12:05:02.355Z,2.37
2022-08-08T12:07:29.179Z,2.60
2022-08-08T12:10:11.061Z,2.70
2022-08-08T12:12:42.113Z,2.80
2022-08-08T12:15:25.930Z,2.07
2022-08-08T12:17:52.665Z,2.33
2022-08-08T12:20:19.670Z,2.53
2022-08-08T12:22:49.650Z,2.10
2022-08-08T12:25:29.725Z,2.27
2022-08-08T12:28:16.449Z,2.20
2022-08-08T12:30:47.946Z,2.13
2022-08-08T12:33:24.125Z,2.57
2022-08-08T12:36:12.241Z,2.40
2022-08-08T12:38:55.421Z,2.57
2022-08-08T12:41:35.088Z,1.97
2022-08-08T12:44:14.186Z,2.50
2022-08-08T12:47:00.076Z,2.10
2022-08-08T12:49:43.217Z,2.17
2022-08-08T12:52:28.397Z,2.10
2022-08-08T12:55:13.598Z,2.40
2022-08-08T12:57:49.885Z,2.30
2022-08-08T13:00:33.974Z,2.03
2022-08-08T13:03:07.280Z,2.40
2022-08-08T13:06:03.455Z,2.00
2022-08-08T13:08:21.798Z,2.80
2022-08-08T13:10:56.839Z,2.60
2022-08-08T13:13:35.825Z,2.47
2022-08-08T13:16:25.866Z,2.80
2022-08-08T13:18:57.239Z,2.67
2022-08-08T13:21:36.384Z,2.30
2022-08-08T13:24:18.744Z,2.77
2022-08-08T13:27:01.976Z,2.50
2022-08-08T13:29:38.005Z,3.13
2022-08-08T13:32:07.810Z,2.97
2022-08-08T13:34:39.972Z,2.60
2022-08-08T13:37:10.930Z,2.47
2022-08-08T13:39:55.466Z,2.50
2022-08-08T13:42:24.151Z,2.40
2022-08-08T13:44:55.805Z,2.50
2022-08-08T13:47:23.433Z,2.87
2022-08-08T13:50:37.543Z,2.67
2022-08-08T13:52:55.264Z,2.97
2022-08-08T13:55:29.023Z,2.20
2022-08-08T13:58:07.825Z,2.60
2022-08-08T14:00:45.141Z,2.20
2022-08-08T14:03:52.998Z,2.10
2022-08-08T14:06:32.526Z,2.10
2022-08-08T14:08:57.897Z,2.27
2022-08-08T14:11:30.161Z,2.43
2022-08-08T14:14:02.290Z,2.70
2022-08-08T14:16:31.885Z,2.60
2022-08-08T14:19:02.843Z,2.40
2022-08-08T14:21:54.897Z,2.90
2022-08-08T14:24:31.652Z,3.40
2022-08-08T14:26:58.297Z,2.10
2022-08-08T14:29:30.165Z,1.97
2022-08-08T14:32:12.840Z,2.83
2022-08-08T14:34:50.954Z,2.47
2022-08-08T14:37:18.465Z,2.50
2022-08-08T14:39:53.757Z,2.37
2022-08-08T14:42:34.735Z,2.33
2022-08-08T14:45:10.024Z,2.50
2022-08-08T14:48:00.818Z,2.40
2022-08-08T14:50:38.974Z,2.20
2022-08-08T14:53:09.946Z,2.20
2022-08-08T14:55:42.096Z,2.10
2022-08-08T14:58:11.739Z,1.97
2022-08-08T15:00:43.342Z,2.37
2022-08-08T15:03:15.111Z,2.33
2022-08-08T15:05:53.983Z,1.53
2022-08-08T15:08:34.653Z,1.60
2022-08-08T15:11:10.483Z,1.93
2022-08-08T15:14:02.053Z,2.20
2022-08-08T15:16:28.047Z,1.97
2022-08-08T15:18:55.204Z,2.30
2022-08-08T15:21:22.324Z,1.53
2022-08-08T15:23:54.201Z,1.50
2022-08-08T15:26:20.998Z,1.70
2022-08-08T15:28:53.962Z,2.40
2022-08-08T15:31:49.046Z,2.27
2022-08-08T15:34:18.739Z,1.93
2022-08-08T15:37:02.085Z,1.90
2022-08-08T15:39:31.653Z,1.47
2022-08-08T15:42:06.914Z,1.30
2022-08-08T15:44:38.528Z,1.97
2022-08-08T15:47:07.131Z,1.50
2022-08-08T15:49:44.450Z,1.70
2022-08-08T15:52:16.197Z,1.90
2022-08-08T15:54:51.365Z,1.50
2022-08-08T15:57:19.007Z,1.50
2022-08-08T16:00:06.111Z,3.00
2022-08-08T16:02:43.795Z,1.47
2022-08-08T16:05:13.901Z,1.63
2022-08-08T16:07:52.700Z,1.80
2022-08-08T16:13:09.179Z,1.40
2022-08-08T16:13:43.402Z,1.53
2022-08-08T16:16:09.665Z,1.50
2022-08-08T16:18:44.506Z,1.33
2022-08-08T16:21:26.965Z,1.30
2022-08-08T16:23:55.515Z,1.40
2022-08-08T16:26:33.661Z,1.53
2022-08-08T16:29:08.960Z,1.27
2022-08-08T16:31:37.807Z,1.10
2022-08-08T16:34:04.440Z,1.40
2022-08-08T16:36:34.067Z,1.30
2022-08-08T16:39:09.870Z,1.27
2022-08-08T16:41:51.201Z,1.07
2022-08-08T16:44:27.594Z,1.40
2022-08-08T16:47:21.960Z,1.40
2022-08-08T16:50:13.587Z,1.10
2022-08-08T16:55:06.464Z,1.43
2022-08-08T16:55:53.219Z,1.33
2022-08-08T16:58:20.517Z,1.63
2022-08-08T17:00:49.162Z,1.40
2022-08-08T17:03:24.837Z,1.00
2022-08-08T17:06:35.680Z,1.10
2022-08-08T17:08:54.049Z,1.20
2022-08-08T17:11:20.719Z,2.13
2022-08-08T17:14:00.697Z,1.20
2022-08-08T17:16:28.604Z,1.53
2022-08-08T17:18:56.606Z,1.53
2022-08-08T17:21:26.220Z,1.20
2022-08-08T17:24:00.400Z,1.50
2022-08-08T17:26:29.814Z,1.60
2022-08-08T17:29:04.346Z,1.60
2022-08-08T17:31:45.655Z,1.23
2022-08-08T17:34:53.030Z,1.87
2022-08-08T17:37:06.702Z,1.50
2022-08-08T17:40:04.062Z,1.43
2022-08-08T17:42:23.078Z,1.70
2022-08-08T17:44:52.254Z,1.53
2022-08-08T17:47:27.272Z,1.57
2022-08-08T17:50:00.921Z,2.03
2022-08-08T17:52:35.541Z,1.80
2022-08-08T17:56:03.523Z,1.60
2022-08-08T17:57:52.214Z,1.10
2022-08-08T18:00:25.865Z,1.30
2022-08-08T18:03:07.533Z,2.13
2022-08-08T18:05:48.265Z,1.20
2022-08-08T18:08:24.456Z,1.40
2022-08-08T18:11:14.448Z,2.17
2022-08-08T18:13:43.245Z,1.23
2022-08-08T18:16:11.186Z,1.90
2022-08-08T18:18:45.188Z,1.30
2022-08-08T18:21:34.727Z,2.20
2022-08-08T18:23:59.133Z,1.70
2022-08-08T18:26:28.119Z,1.40
2022-08-08T18:28:55.888Z,2.27
2022-08-08T18:31:24.878Z,1.67
2022-08-08T18:34:11.865Z,1.73
2022-08-08T18:36:41.351Z,1.30
2022-08-08T18:39:27.318Z,1.30
2022-08-08T18:41:58.248Z,1.20
2022-08-08T18:44:27.580Z,1.87
2022-08-08T18:46:57.948Z,1.33
2022-08-08T18:49:32.716Z,1.57
2022-08-08T18:52:18.218Z,1.40
2022-08-08T18:55:00.686Z,1.23
2022-08-08T18:57:37.008Z,1.83
2022-08-08T19:00:15.927Z,1.40
2022-08-08T19:02:55.539Z,1.30
2022-08-08T19:05:32.054Z,1.73
2022-08-08T19:08:25.198Z,1.97
2022-08-08T19:10:58.548Z,1.57
2022-08-08T19:13:53.780Z,1.23
2022-08-08T19:16:15.031Z,1.87
2022-08-08T19:18:54.534Z,1.47
2022-08-08T19:21:30.943Z,1.50
2022-08-08T19:24:05.689Z,2.00
2022-08-08T19:26:34.840Z,1.40
2022-08-08T19:29:02.335Z,1.40
2022-08-08T19:31:31.715Z,1.60
2022-08-08T19:34:36.061Z,1.73
2022-08-08T19:36:58.574Z,1.23
2022-08-08T19:39:35.578Z,2.13
2022-08-08T19:42:07.142Z,1.57
2022-08-08T19:44:42.997Z,1.60
2022-08-08T19:47:13.303Z,1.60
2022-08-08T19:49:43.464Z,1.57
2022-08-08T19:52:35.569Z,1.93
2022-08-08T19:55:11.306Z,1.70
2022-08-08T19:57:42.494Z,1.53
2022-08-08T20:00:30.213Z,1.50
2022-08-08T20:03:15.049Z,1.87
2022-08-08T20:06:13.796Z,1.50
2022-08-08T20:08:36.273Z,1.90
2022-08-08T20:11:03.172Z,1.40
2022-08-08T20:14:31.545Z,1.90
2022-08-08T20:16:20.138Z,1.90
2022-08-08T20:18:52.655Z,2.03
2022-08-08T20:21:24.947Z,2.10
2022-08-08T20:23:58.201Z,1.73
2022-08-08T20:26:30.191Z,1.60
2022-08-08T20:29:00.838Z,1.50
2022-08-08T20:31:47.263Z,1.87
2022-08-08T20:34:30.573Z,1.60
2022-08-08T20:36:59.366Z,1.80
2022-08-08T20:39:26.922Z,1.43
2022-08-08T20:42:00.710Z,1.80
2022-08-08T20:44:27.431Z,1.60
2022-08-08T20:46:53.965Z,1.50
2022-08-08T20:49:21.887Z,1.37
2022-08-08T20:51:48.586Z,2.30
2022-08-08T20:54:27.410Z,1.50
2022-08-08T20:57:04.316Z,2.00
2022-08-08T20:59:42.021Z,2.00
2022-08-08T21:02:12.481Z,1.70
2022-08-08T21:04:40.508Z,2.30
2022-08-08T21:07:13.924Z,1.87
2022-08-08T21:10:01.532Z,1.93
2022-08-08T21:12:32.441Z,2.23
2022-08-08T21:15:07.027Z,1.80
2022-08-08T21:17:35.309Z,1.60
2022-08-08T21:20:04.060Z,2.20
2022-08-08T21:22:30.860Z,1.90
2022-08-08T21:24:58.344Z,1.87
2022-08-08T21:27:38.980Z,1.57
2022-08-08T21:30:18.545Z,2.73
2022-08-08T21:32:51.739Z,1.70
2022-08-08T21:36:14.923Z,2.77
2022-08-08T21:38:16.343Z,2.40
2022-08-08T21:40:56.314Z,2.50
2022-08-08T21:43:34.342Z,2.00
2022-08-08T21:48:03.820Z,3.07
2022-08-08T21:48:55.593Z,2.00
2022-08-08T21:54:18.118Z,2.03
2022-08-08T21:54:27.209Z,2.10
2022-08-08T21:57:01.232Z,1.80
2022-08-08T22:00:02.836Z,1.80
2022-08-08T22:02:19.615Z,2.50
2022-08-08T22:04:51.927Z,2.10
2022-08-08T22:07:19.149Z,2.37
2022-08-08T22:09:45.876Z,2.07
2022-08-08T22:12:14.942Z,2.40
2022-08-08T22:14:44.308Z,2.20
2022-08-08T22:17:16.566Z,2.27
2022-08-08T22:20:12.962Z,2.50
2022-08-08T22:22:34.555Z,1.93
2022-08-08T22:25:17.798Z,1.90
2022-08-08T22:28:04.352Z,2.03
2022-08-08T22:30:40.623Z,2.00
2022-08-08T22:33:22.123Z,2.30
2022-08-08T22:36:04.117Z,2.40
2022-08-08T22:38:48.868Z,2.17
2022-08-08T22:41:21.135Z,2.57
2022-08-08T22:44:02.318Z,2.50
2022-08-08T22:46:34.505Z,2.27
2022-08-08T22:49:06.102Z,2.00
2022-08-08T22:51:34.782Z,2.37
2022-08-08T22:54:32.898Z,1.80
2022-08-08T22:56:56.151Z,2.33
2022-08-08T22:59:22.827Z,2.30
2022-08-08T23:02:04.017Z,2.37
2022-08-08T23:04:32.338Z,2.30
2022-08-08T23:07:02.783Z,3.13
2022-08-08T23:09:31.085Z,2.50
2022-08-08T23:12:27.966Z,2.27
2022-08-08T23:14:59.804Z,2.63
2022-08-08T23:17:29.988Z,2.73
2022-08-08T23:19:56.800Z,2.83
2022-08-08T23:22:23.685Z,3.13
2022-08-08T23:24:50.670Z,2.60
2022-08-08T23:27:38.128Z,3.33
2022-08-08T23:30:06.036Z,2.87
2022-08-08T23:32:36.118Z,2.67
2022-08-08T23:35:12.671Z,3.03
2022-08-08T23:38:02.042Z,2.63
2022-08-08T23:40:30.979Z,2.90
2022-08-08T23:42:57.946Z,3.10
2022-08-08T23:49:00.210Z,2.70
2022-08-08T23:49:05.194Z,2.73
2022-08-08T23:50:58.873Z,3.03
2022-08-08T23:53:55.646Z,3.93
2022-08-08T23:56:13.639Z,3.20
2022-08-08T23:58:50.516Z,2.53
